createdAt,value
2022-12-18T00:00:17.862Z,-3.68
2022-12-18T00:05:52.093Z,-3.64
2022-12-18T00:10:55.775Z,-3.58
2022-12-18T00:16:05.529Z,-3.51
2022-12-18T00:21:11.258Z,-3.47
2022-12-18T00:26:17.498Z,-3.43
2022-12-18T00:31:23.653Z,-3.38
2022-12-18T00:36:33.178Z,-3.35
2022-12-18T00:41:54.860Z,-3.36
2022-12-18T00:46:58.019Z,-3.37
2022-12-18T00:52:01.546Z,-3.36
2022-12-18T00:57:04.750Z,-3.32
2022-12-18T01:02:08.067Z,-3.30
2022-12-18T01:07:11.358Z,-3.26
2022-12-18T01:12:14.503Z,-3.23
2022-12-18T01:17:17.600Z,-3.19
2022-12-18T01:22:20.731Z,-3.16
2022-12-18T01:27:23.926Z,-3.14
2022-12-18T01:32:31.811Z,-3.14
2022-12-18T01:37:35.041Z,-3.18
2022-12-18T01:42:38.179Z,-3.17
2022-12-18T01:48:16.806Z,-3.11
2022-12-18T01:53:24.920Z,-3.08
2022-12-18T01:58:41.706Z,-3.09
2022-12-18T02:03:46.179Z,-3.09
2022-12-18T02:08:59.179Z,-3.13
2022-12-18T02:14:09.765Z,-3.16
2022-12-18T02:19:21.984Z,-3.17
2022-12-18T02:24:44.063Z,-3.16
2022-12-18T02:29:58.554Z,-3.13
2022-12-18T02:35:07.645Z,-3.10
2022-12-18T02:40:13.668Z,-3.05
2022-12-18T02:45:17.050Z,-2.98
2022-12-18T02:50:42.786Z,-2.98
2022-12-18T02:56:20.063Z,-3.03
2022-12-18T03:01:45.688Z,-3.10
2022-12-18T03:06:53.754Z,-3.08
2022-12-18T03:12:26.119Z,-3.02
2022-12-18T03:17:34.820Z,-2.92
2022-12-18T03:22:40.212Z,-2.92
2022-12-18T03:27:48.659Z,-2.95
2022-12-18T03:33:04.835Z,-3.01
2022-12-18T03:38:09.013Z,-3.06
2022-12-18T03:43:31.660Z,-3.09
2022-12-18T03:48:57.527Z,-3.09
2022-12-18T03:54:05.197Z,-3.07
2022-12-18T03:59:16.709Z,-3.08
2022-12-18T04:04:21.437Z,-3.10
2022-12-18T04:09:25.504Z,-3.12
2022-12-18T04:14:29.449Z,-3.15
2022-12-18T04:19:33.137Z,-3.14
2022-12-18T04:24:37.152Z,-3.10
2022-12-18T04:29:47.019Z,-3.12
2022-12-18T04:34:51.631Z,-3.19
2022-12-18T04:39:55.065Z,-3.31
2022-12-18T04:45:04.416Z,-3.39
2022-12-18T04:50:08.538Z,-3.46
2022-12-18T04:55:11.704Z,-3.50
2022-12-18T05:00:15.596Z,-3.55
2022-12-18T05:05:19.083Z,-3.63
2022-12-18T05:10:22.173Z,-3.75
2022-12-18T05:15:30.828Z,-3.89
2022-12-18T05:20:34.164Z,-3.99
2022-12-18T05:25:37.360Z,-4.07
2022-12-18T05:30:45.417Z,-4.12
2022-12-18T05:35:57.021Z,-4.09
2022-12-18T05:41:00.137Z,-4.03
2022-12-18T05:46:15.418Z,-4.01
2022-12-18T05:51:20.934Z,-4.01
2022-12-18T05:56:24.731Z,-4.01
2022-12-18T06:01:28.028Z,-4.01
2022-12-18T06:06:31.285Z,-4.07
2022-12-18T06:11:34.595Z,-4.06
2022-12-18T06:16:37.877Z,-3.99
2022-12-18T06:21:41.007Z,-3.93
2022-12-18T06:26:44.222Z,-3.89
2022-12-18T06:31:47.400Z,-3.86
2022-12-18T06:36:50.469Z,-3.82
2022-12-18T06:41:53.631Z,-3.80
2022-12-18T06:46:56.821Z,-3.76
2022-12-18T06:51:59.892Z,-3.72
2022-12-18T06:57:03.005Z,-3.65
2022-12-18T07:02:06.254Z,-3.58
2022-12-18T07:07:09.510Z,-3.44
2022-12-18T07:12:12.706Z,-3.32
2022-12-18T07:17:15.909Z,-3.25
2022-12-18T07:22:19.381Z,-3.24
2022-12-18T07:27:23.270Z,-3.26
2022-12-18T07:32:26.467Z,-3.26
2022-12-18T07:37:29.680Z,-3.25
2022-12-18T07:42:32.891Z,-3.24
2022-12-18T07:47:42.319Z,-3.20
2022-12-18T07:52:45.595Z,-3.09
2022-12-18T07:57:51.400Z,-3.00
2022-12-18T08:02:56.664Z,-2.98
2022-12-18T08:08:00.077Z,-3.01
2022-12-18T08:13:05.213Z,-3.05
2022-12-18T08:18:13.947Z,-2.98
2022-12-18T08:23:17.660Z,-2.87
2022-12-18T08:28:20.795Z,-2.84
2022-12-18T08:33:24.692Z,-2.87
2022-12-18T08:38:28.096Z,-2.91
2022-12-18T08:43:50.006Z,-2.84
2022-12-18T08:48:54.581Z,-2.81
2022-12-18T08:53:57.748Z,-2.79
2022-12-18T08:59:00.977Z,-2.72
2022-12-18T09:04:04.748Z,-2.65
2022-12-18T09:09:11.725Z,-2.56
2022-12-18T09:14:14.875Z,-2.47
2022-12-18T09:19:18.000Z,-2.37
2022-12-18T09:24:23.980Z,-2.30
2022-12-18T09:29:27.074Z,-2.28
2022-12-18T09:34:30.216Z,-2.29
2022-12-18T09:39:33.318Z,-2.30
2022-12-18T09:44:50.015Z,-2.32
2022-12-18T09:50:02.138Z,-2.39
2022-12-18T09:55:23.988Z,-2.35
2022-12-18T10:00:27.207Z,-2.28
2022-12-18T10:05:48.806Z,-2.18
2022-12-18T10:11:02.801Z,-2.00
2022-12-18T10:16:09.010Z,-1.90
2022-12-18T10:21:20.335Z,-1.83
2022-12-18T10:26:24.301Z,-1.82
2022-12-18T10:31:27.418Z,-1.82
2022-12-18T10:36:30.689Z,-1.74
2022-12-18T10:41:33.945Z,-1.76
2022-12-18T10:46:38.032Z,-1.69
2022-12-18T10:51:41.368Z,-1.53
2022-12-18T10:56:45.414Z,-1.41
2022-12-18T11:01:59.723Z,-1.46
2022-12-18T11:07:06.160Z,-1.54
2022-12-18T11:12:21.316Z,-1.56
2022-12-18T11:17:36.643Z,-1.56
2022-12-18T11:22:41.379Z,-1.45
2022-12-18T11:28:46.670Z,-1.37
2022-12-18T11:34:26.772Z,-1.25
2022-12-18T11:39:33.192Z,-1.10
2022-12-18T11:44:51.841Z,-0.94
2022-12-18T11:49:58.248Z,-0.81
2022-12-18T11:55:06.255Z,-0.85
2022-12-18T12:00:19.964Z,-0.91
2022-12-18T12:05:51.164Z,-0.99
2022-12-18T12:11:15.923Z,-1.03
2022-12-18T12:16:23.434Z,-1.09
2022-12-18T12:21:38.605Z,-1.17
2022-12-18T12:27:24.134Z,-1.21
2022-12-18T12:32:55.396Z,-1.31
2022-12-18T12:38:28.338Z,-1.40
2022-12-18T12:43:49.380Z,-1.40
2022-12-18T12:49:02.170Z,-1.38
2022-12-18T12:54:13.825Z,-1.49
2022-12-18T12:59:31.809Z,-1.47
2022-12-18T13:05:15.931Z,-1.52
2022-12-18T13:10:25.762Z,-1.56
2022-12-18T13:15:47.265Z,-1.58
2022-12-18T13:26:24.706Z,-1.77
2022-12-18T13:31:41.785Z,-1.82
2022-12-18T13:36:45.558Z,-1.88
2022-12-18T13:42:31.890Z,-1.85
2022-12-18T13:47:39.202Z,-1.82
2022-12-18T13:52:44.755Z,-1.84
2022-12-18T13:57:47.919Z,-1.95
2022-12-18T14:02:59.232Z,-2.00
2022-12-18T14:08:19.056Z,-2.11
2022-12-18T14:13:31.641Z,-2.13
2022-12-18T14:18:53.520Z,-2.14
2022-12-18T14:24:23.050Z,-2.12
2022-12-18T14:29:28.063Z,-2.11
2022-12-18T14:34:31.293Z,-2.14
2022-12-18T14:39:34.412Z,-2.18
2022-12-18T14:44:50.644Z,-2.20
2022-12-18T14:50:01.246Z,-2.23
2022-12-18T14:55:04.729Z,-2.22
2022-12-18T15:00:17.048Z,-2.23
2022-12-18T15:05:26.486Z,-2.27
2022-12-18T15:10:34.390Z,-2.28
2022-12-18T15:15:37.576Z,-2.25
2022-12-18T15:20:42.918Z,-2.23
2022-12-18T15:25:48.067Z,-2.20
2022-12-18T15:31:12.648Z,-2.22
2022-12-18T15:36:21.371Z,-2.28
2022-12-18T15:41:33.653Z,-2.35
2022-12-18T15:46:50.742Z,-2.43
2022-12-18T15:51:57.805Z,-2.45
2022-12-18T15:57:19.673Z,-2.46
2022-12-18T16:02:24.261Z,-2.39
2022-12-18T16:07:30.607Z,-2.37
2022-12-18T16:12:34.534Z,-2.47
2022-12-18T16:17:39.304Z,-2.48
2022-12-18T16:22:45.891Z,-2.52
2022-12-18T16:28:07.926Z,-2.52
2022-12-18T16:33:12.176Z,-2.60
2022-12-18T16:38:15.554Z,-2.64
2022-12-18T16:43:18.698Z,-2.64
2022-12-18T16:48:23.069Z,-2.57
2022-12-18T16:53:26.242Z,-2.52
2022-12-18T16:58:29.910Z,-2.61
2022-12-18T17:03:33.114Z,-2.70
2022-12-18T17:08:36.271Z,-2.79
2022-12-18T17:13:40.024Z,-2.91
2022-12-18T17:18:43.916Z,-2.95
2022-12-18T17:23:47.326Z,-2.89
2022-12-18T17:28:50.523Z,-2.86
2022-12-18T17:33:53.929Z,-2.86
2022-12-18T17:39:00.288Z,-2.93
2022-12-18T17:44:05.959Z,-2.98
2022-12-18T17:49:10.883Z,-3.07
2022-12-18T17:54:16.011Z,-3.23
2022-12-18T17:59:19.200Z,-3.26
2022-12-18T18:04:22.334Z,-3.35
2022-12-18T18:09:25.556Z,-3.37
2022-12-18T18:14:28.830Z,-3.42
2022-12-18T18:19:33.675Z,-3.41
2022-12-18T18:24:36.923Z,-3.47
2022-12-18T18:29:40.315Z,-3.56
2022-12-18T18:34:43.470Z,-3.64
2022-12-18T18:39:46.688Z,-3.72
2022-12-18T18:44:49.802Z,-3.71
2022-12-18T18:49:53.013Z,-3.72
2022-12-18T18:55:12.085Z,-3.68
2022-12-18T19:00:16.843Z,-3.65
2022-12-18T19:05:20.417Z,-3.76
2022-12-18T19:10:23.745Z,-4.00
2022-12-18T19:15:26.945Z,-4.14
2022-12-18T19:20:30.526Z,-4.17
2022-12-18T19:25:38.562Z,-4.09
2022-12-18T19:30:45.078Z,-3.98
2022-12-18T19:35:48.588Z,-3.86
2022-12-18T19:40:52.607Z,-3.83
2022-12-18T19:45:56.127Z,-3.87
2022-12-18T19:51:03.896Z,-3.91
2022-12-18T19:56:09.047Z,-3.93
2022-12-18T20:01:16.227Z,-3.91
2022-12-18T20:06:29.283Z,-3.96
2022-12-18T20:11:38.865Z,-3.94
2022-12-18T20:16:45.817Z,-3.85
2022-12-18T20:21:49.569Z,-3.74
2022-12-18T20:26:52.834Z,-3.70
2022-12-18T20:31:56.202Z,-3.76
2022-12-18T20:36:59.403Z,-3.82
2022-12-18T20:42:03.567Z,-3.90
2022-12-18T20:47:08.578Z,-3.98
2022-12-18T20:52:12.967Z,-4.00
2022-12-18T20:57:16.195Z,-3.92
2022-12-18T21:02:19.548Z,-3.85
2022-12-18T21:07:23.089Z,-3.85
2022-12-18T21:12:40.397Z,-3.88
2022-12-18T21:17:48.148Z,-3.96
2022-12-18T21:22:51.618Z,-4.00
2022-12-18T21:27:57.224Z,-4.02
2022-12-18T21:33:00.646Z,-3.99
2022-12-18T21:38:05.765Z,-3.97
2022-12-18T21:43:29.053Z,-3.98
2022-12-18T21:48:32.321Z,-3.99
2022-12-18T21:53:35.474Z,-4.00
2022-12-18T21:58:38.592Z,-4.03
2022-12-18T22:03:58.896Z,-4.09
2022-12-18T22:09:02.160Z,-4.13
2022-12-18T22:14:05.392Z,-4.12
2022-12-18T22:19:09.949Z,-4.02
2022-12-18T22:24:15.104Z,-3.84
2022-12-18T22:29:42.163Z,-3.84
2022-12-18T22:34:45.396Z,-3.91
2022-12-18T22:39:48.539Z,-3.98
2022-12-18T22:44:51.848Z,-4.04
2022-12-18T22:49:54.950Z,-4.09
2022-12-18T22:54:58.168Z,-4.12
2022-12-18T23:00:01.310Z,-4.17
2022-12-18T23:05:07.827Z,-4.18
2022-12-18T23:10:11.172Z,-4.17
2022-12-18T23:15:14.367Z,-4.17
2022-12-18T23:20:20.112Z,-4.16
2022-12-18T23:25:23.708Z,-4.15
2022-12-18T23:30:26.857Z,-4.21
2022-12-18T23:35:30.692Z,-4.25
2022-12-18T23:40:33.948Z,-4.29
2022-12-18T23:45:38.354Z,-4.38
2022-12-18T23:50:41.472Z,-4.43
2022-12-18T23:55:45.495Z,-4.46
